createdAt,value
2018-08-06T00:01:38.536Z,4.07
2018-08-06T00:04:10.047Z,2.70
2018-08-06T00:06:42.048Z,3.22
2018-08-06T00:09:14.960Z,3.03
2018-08-06T00:11:46.380Z,2.85
2018-08-06T00:14:19.491Z,3.35
2018-08-06T00:16:53.903Z,2.72
2018-08-06T00:19:26.852Z,2.50
2018-08-06T00:21:59.109Z,6.35
2018-08-06T00:24:29.017Z,2.75
2018-08-06T00:27:04.035Z,5.80
2018-08-06T00:29:34.048Z,4.30
2018-08-06T00:32:06.817Z,3.33
2018-08-06T00:34:39.936Z,4.90
2018-08-06T00:37:11.408Z,3.37
2018-08-06T00:39:45.987Z,3.00
2018-08-06T00:42:20.411Z,3.10
2018-08-06T00:44:51.914Z,3.92
2018-08-06T00:47:24.882Z,2.40
2018-08-06T00:49:56.561Z,2.87
2018-08-06T00:52:26.811Z,2.87
2018-08-06T00:54:57.162Z,3.05
2018-08-06T00:57:29.121Z,5.43
2018-08-06T01:00:03.496Z,3.95
2018-08-06T01:02:33.478Z,4.00
2018-08-06T01:05:05.861Z,3.08
2018-08-06T01:07:37.439Z,4.47
2018-08-06T01:10:11.352Z,3.70
2018-08-06T01:12:42.658Z,3.33
2018-08-06T01:15:17.265Z,3.65
2018-08-06T01:17:50.454Z,2.55
2018-08-06T01:20:22.837Z,6.70
2018-08-06T01:22:55.931Z,4.18
2018-08-06T01:25:27.418Z,3.80
2018-08-06T01:28:01.899Z,4.22
2018-08-06T01:30:33.580Z,3.83
2018-08-06T01:33:06.553Z,4.15
2018-08-06T01:35:39.566Z,3.58
2018-08-06T01:38:11.173Z,4.72
2018-08-06T01:40:44.341Z,3.55
2018-08-06T01:43:15.975Z,4.00
2018-08-06T01:45:46.071Z,3.40
2018-08-06T01:48:17.847Z,4.40
2018-08-06T01:50:50.734Z,4.40
2018-08-06T01:53:22.378Z,4.85
2018-08-06T01:55:54.466Z,4.12
2018-08-06T01:58:27.341Z,3.45
2018-08-06T02:01:00.255Z,3.72
2018-08-06T02:03:30.331Z,2.62
2018-08-06T02:06:02.398Z,6.20
2018-08-06T02:08:37.155Z,4.70
2018-08-06T02:11:08.614Z,2.55
2018-08-06T02:13:42.003Z,5.57
2018-08-06T02:16:13.564Z,4.78
2018-08-06T02:18:45.029Z,2.92
2018-08-06T02:21:17.993Z,4.25
2018-08-06T02:23:52.248Z,3.47
2018-08-06T02:26:25.570Z,3.62
2018-08-06T02:28:55.561Z,3.00
2018-08-06T02:31:28.089Z,3.20
2018-08-06T02:33:59.681Z,3.00
2018-08-06T02:36:31.136Z,3.47
2018-08-06T02:39:04.108Z,4.53
2018-08-06T02:41:35.916Z,3.20
2018-08-06T02:44:06.048Z,3.35
2018-08-06T02:46:38.462Z,5.32
2018-08-06T02:49:13.144Z,3.37
2018-08-06T02:51:44.609Z,2.87
2018-08-06T02:54:16.097Z,3.30
2018-08-06T02:56:48.275Z,3.05
2018-08-06T02:59:18.719Z,4.12
2018-08-06T03:01:51.635Z,3.70
2018-08-06T03:04:24.345Z,3.72
2018-08-06T03:06:55.797Z,4.15
2018-08-06T03:09:25.531Z,4.57
2018-08-06T03:11:57.017Z,5.00
2018-08-06T03:14:27.478Z,3.40
2018-08-06T03:16:58.892Z,3.28
2018-08-06T03:19:31.963Z,5.18
2018-08-06T03:22:04.979Z,8.38
2018-08-06T03:24:38.907Z,3.25
2018-08-06T03:27:10.601Z,3.42
2018-08-06T03:29:44.141Z,4.80
2018-08-06T03:32:14.183Z,3.70
2018-08-06T03:34:47.274Z,4.60
2018-08-06T03:37:17.178Z,3.75
2018-08-06T03:39:48.776Z,3.97
2018-08-06T03:42:21.846Z,4.03
2018-08-06T03:44:53.560Z,6.62
2018-08-06T03:47:23.785Z,3.72
2018-08-06T03:49:53.705Z,4.57
2018-08-06T03:52:24.098Z,3.90
2018-08-06T03:54:56.101Z,7.22
2018-08-06T03:57:28.412Z,4.30
2018-08-06T04:00:00.772Z,4.75
2018-08-06T04:02:33.730Z,4.12
2018-08-06T04:05:05.713Z,7.70
2018-08-06T04:07:39.261Z,3.90
2018-08-06T04:10:17.303Z,9.68
2018-08-06T04:12:50.573Z,4.95
2018-08-06T04:15:23.715Z,5.68
2018-08-06T04:17:56.874Z,5.50
2018-08-06T04:20:28.426Z,5.30
2018-08-06T04:23:00.174Z,3.72
2018-08-06T04:25:33.045Z,4.12
2018-08-06T04:28:05.954Z,4.47
2018-08-06T04:30:38.518Z,5.43
2018-08-06T04:33:10.424Z,4.70
2018-08-06T04:35:41.766Z,6.43
2018-08-06T04:38:13.271Z,5.25
2018-08-06T04:40:46.219Z,3.87
2018-08-06T04:43:16.290Z,6.70
2018-08-06T04:45:47.659Z,5.62
2018-08-06T04:48:20.694Z,6.60
2018-08-06T04:50:55.114Z,3.95
2018-08-06T04:53:28.060Z,4.00
2018-08-06T04:55:58.506Z,4.90
2018-08-06T04:58:31.404Z,7.15
2018-08-06T05:01:03.900Z,5.82
2018-08-06T05:03:38.212Z,4.62
2018-08-06T05:06:11.486Z,9.60
2018-08-06T05:08:43.064Z,4.00
2018-08-06T05:11:16.113Z,4.78
2018-08-06T05:13:47.887Z,6.50
2018-08-06T05:16:21.329Z,3.53
2018-08-06T05:18:52.849Z,3.80
2018-08-06T05:21:24.755Z,4.78
2018-08-06T05:24:01.629Z,4.35
2018-08-06T05:26:34.668Z,3.65
2018-08-06T05:29:04.938Z,5.35
2018-08-06T05:31:37.711Z,3.70
2018-08-06T05:34:11.388Z,6.85
2018-08-06T05:36:44.397Z,3.65
2018-08-06T05:39:15.937Z,4.87
2018-08-06T05:41:48.271Z,5.12
2018-08-06T05:44:18.459Z,7.95
2018-08-06T05:46:52.958Z,4.57
2018-08-06T05:49:24.834Z,6.37
2018-08-06T05:51:54.223Z,7.55
2018-08-06T05:54:28.601Z,5.12
2018-08-06T05:57:01.630Z,4.10
2018-08-06T05:59:34.427Z,4.53
2018-08-06T06:02:08.845Z,5.78
2018-08-06T06:04:41.684Z,4.68
2018-08-06T06:07:14.589Z,6.53
2018-08-06T06:09:47.535Z,6.62
2018-08-06T06:12:18.989Z,4.28
2018-08-06T06:14:51.915Z,6.12
2018-08-06T06:17:24.939Z,5.15
2018-08-06T06:19:56.286Z,6.85
2018-08-06T06:22:27.735Z,9.10
2018-08-06T06:25:00.670Z,5.50
2018-08-06T06:27:33.643Z,7.35
2018-08-06T06:30:05.543Z,7.50
2018-08-06T06:32:40.005Z,7.28
2018-08-06T06:35:15.131Z,4.53
2018-08-06T06:37:45.830Z,7.60
2018-08-06T06:40:16.052Z,7.05
2018-08-06T06:42:50.433Z,6.70
2018-08-06T06:45:23.262Z,7.45
2018-08-06T06:47:53.275Z,4.28
2018-08-06T06:50:24.617Z,7.62
2018-08-06T06:52:56.079Z,6.78
2018-08-06T06:55:27.498Z,4.72
2018-08-06T06:57:59.350Z,4.32
2018-08-06T07:00:29.775Z,6.15
2018-08-06T07:03:01.138Z,7.45
2018-08-06T07:05:31.735Z,7.00
2018-08-06T07:08:03.617Z,7.00
2018-08-06T07:10:34.171Z,6.25
2018-08-06T07:13:05.684Z,7.80
2018-08-06T07:15:40.279Z,6.10
2018-08-06T07:18:10.350Z,6.07
2018-08-06T07:20:43.195Z,3.40
2018-08-06T07:23:14.606Z,4.87
2018-08-06T07:25:45.945Z,4.78
2018-08-06T07:28:17.973Z,6.40
2018-08-06T07:30:47.912Z,4.68
2018-08-06T07:33:20.775Z,7.22
2018-08-06T07:35:52.332Z,5.62
2018-08-06T07:38:24.848Z,6.37
2018-08-06T07:40:54.738Z,6.03
2018-08-06T07:43:24.878Z,6.85
2018-08-06T07:45:54.780Z,6.28
2018-08-06T07:48:27.514Z,4.57
2018-08-06T07:51:00.677Z,6.37
2018-08-06T07:53:33.433Z,3.60
2018-08-06T07:56:04.814Z,5.37
2018-08-06T07:58:38.962Z,6.07
2018-08-06T08:01:13.103Z,7.85
2018-08-06T08:03:45.870Z,7.10
2018-08-06T08:06:15.799Z,5.82
2018-08-06T08:08:47.459Z,8.95
2018-08-06T08:11:18.791Z,4.60
2018-08-06T08:13:50.094Z,6.78
2018-08-06T08:16:21.925Z,5.93
2018-08-06T08:18:53.373Z,3.08
2018-08-06T08:21:26.241Z,4.37
2018-08-06T08:23:57.631Z,3.20
2018-08-06T08:26:29.128Z,5.05
2018-08-06T08:28:59.078Z,2.80
2018-08-06T08:31:28.995Z,3.50
2018-08-06T08:34:01.971Z,4.55
2018-08-06T08:36:35.046Z,3.42
2018-08-06T08:39:11.666Z,3.03
2018-08-06T08:41:43.600Z,4.32
2018-08-06T08:44:14.110Z,3.83
2018-08-06T08:46:45.951Z,3.58
2018-08-06T08:49:15.801Z,3.83
2018-08-06T08:51:48.691Z,5.65
2018-08-06T08:54:20.241Z,4.70
2018-08-06T08:56:53.004Z,4.37
2018-08-06T08:59:24.310Z,3.97
2018-08-06T09:01:57.628Z,6.82
2018-08-06T09:04:27.686Z,3.67
2018-08-06T09:06:58.087Z,2.92
2018-08-06T09:09:29.435Z,3.47
2018-08-06T09:12:01.586Z,5.30
2018-08-06T09:14:31.465Z,2.80
2018-08-06T09:17:02.832Z,3.37
2018-08-06T09:19:37.113Z,3.20
2018-08-06T09:22:07.767Z,5.65
2018-08-06T09:24:40.597Z,3.67
2018-08-06T09:27:11.935Z,4.47
2018-08-06T09:29:41.756Z,4.03
2018-08-06T09:32:11.669Z,3.75
2018-08-06T09:34:45.337Z,4.40
2018-08-06T09:37:18.555Z,4.93
2018-08-06T09:39:53.187Z,3.12
2018-08-06T09:42:23.076Z,6.07
2018-08-06T09:44:53.706Z,2.30
2018-08-06T09:47:24.290Z,4.12
2018-08-06T09:49:54.100Z,5.62
2018-08-06T09:52:27.933Z,2.10
2018-08-06T09:54:58.798Z,3.58
2018-08-06T09:57:30.191Z,5.20
2018-08-06T09:59:59.800Z,2.97
2018-08-06T10:02:31.227Z,2.17
2018-08-06T10:05:04.172Z,4.97
2018-08-06T10:07:37.676Z,2.05
2018-08-06T10:10:15.496Z,3.60
2018-08-06T10:12:47.521Z,4.68
2018-08-06T10:15:19.152Z,3.37
2018-08-06T10:17:51.523Z,2.60
2018-08-06T10:20:26.028Z,2.83
2018-08-06T10:22:58.952Z,6.93
2018-08-06T10:25:32.306Z,3.62
2018-08-06T10:28:03.689Z,5.37
2018-08-06T10:30:35.077Z,6.20
2018-08-06T10:33:06.476Z,4.78
2018-08-06T10:35:40.877Z,3.45
2018-08-06T10:38:12.401Z,3.70
2018-08-06T10:40:42.940Z,3.25
2018-08-06T10:43:14.318Z,2.80
2018-08-06T10:45:46.068Z,4.35
2018-08-06T10:48:19.040Z,3.60
2018-08-06T10:50:51.793Z,4.55
2018-08-06T10:53:24.837Z,5.60
2018-08-06T10:55:56.209Z,3.67
2018-08-06T10:58:28.047Z,3.22
2018-08-06T11:00:59.520Z,2.30
2018-08-06T11:03:32.312Z,4.55
2018-08-06T11:06:02.667Z,3.95
2018-08-06T11:08:34.608Z,6.70
2018-08-06T11:11:06.441Z,4.75
2018-08-06T11:13:35.764Z,4.18
2018-08-06T11:16:07.753Z,3.60
2018-08-06T11:18:39.615Z,4.87
2018-08-06T11:21:12.475Z,3.45
2018-08-06T11:23:42.324Z,6.07
2018-08-06T11:26:13.712Z,2.83
2018-08-06T11:28:45.025Z,4.25
2018-08-06T11:31:16.359Z,3.28
2018-08-06T11:33:47.816Z,2.87
2018-08-06T11:36:17.655Z,4.78
2018-08-06T11:38:49.482Z,4.28
2018-08-06T11:41:19.716Z,5.75
2018-08-06T11:43:51.091Z,3.53
2018-08-06T11:46:22.437Z,4.85
2018-08-06T11:48:53.862Z,5.75
2018-08-06T11:51:26.678Z,3.65
2018-08-06T11:53:58.060Z,3.10
2018-08-06T11:56:30.913Z,7.00
2018-08-06T11:59:01.874Z,4.05
2018-08-06T12:01:33.281Z,3.90
2018-08-06T12:04:04.706Z,4.22
2018-08-06T12:06:38.407Z,3.00
2018-08-06T12:09:14.524Z,4.47
2018-08-06T12:11:46.030Z,6.25
2018-08-06T12:14:18.884Z,6.07
2018-08-06T12:16:53.225Z,3.33
2018-08-06T12:19:27.777Z,3.22
2018-08-06T12:22:00.717Z,3.12
2018-08-06T12:24:35.390Z,3.33
2018-08-06T12:27:07.212Z,3.17
2018-08-06T12:29:37.061Z,2.42
2018-08-06T12:32:10.255Z,4.87
2018-08-06T12:34:41.587Z,4.97
2018-08-06T12:37:12.913Z,4.30
2018-08-06T12:39:47.215Z,2.90
2018-08-06T12:42:18.606Z,3.65
2018-08-06T12:44:51.399Z,3.50
2018-08-06T12:47:25.803Z,4.55
2018-08-06T12:49:55.712Z,2.78
2018-08-06T12:52:26.995Z,2.70
2018-08-06T12:55:00.147Z,2.65
2018-08-06T12:57:32.981Z,3.87
2018-08-06T13:00:06.187Z,5.12
2018-08-06T13:02:38.275Z,2.60
2018-08-06T13:05:11.454Z,2.58
2018-08-06T13:07:43.042Z,3.17
2018-08-06T13:10:15.599Z,4.47
2018-08-06T13:12:49.936Z,2.85
2018-08-06T13:15:20.375Z,5.07
2018-08-06T13:17:51.776Z,4.07
2018-08-06T13:20:24.799Z,4.72
2018-08-06T13:22:56.181Z,3.65
2018-08-06T13:25:27.399Z,2.97
2018-08-06T13:27:57.619Z,3.20
2018-08-06T13:30:28.981Z,4.50
2018-08-06T13:33:02.565Z,3.10
2018-08-06T13:35:33.004Z,2.87
2018-08-06T13:38:02.898Z,4.40
2018-08-06T13:40:32.731Z,3.08
2018-08-06T13:43:04.157Z,2.97
2018-08-06T13:45:37.016Z,3.00
2018-08-06T13:48:10.381Z,4.15
2018-08-06T13:50:43.255Z,2.80
2018-08-06T13:53:15.884Z,4.55
2018-08-06T13:55:50.099Z,6.20
2018-08-06T13:58:22.908Z,3.08
2018-08-06T14:00:56.359Z,2.90
2018-08-06T14:03:29.190Z,6.05
2018-08-06T14:06:00.640Z,7.10
2018-08-06T14:08:31.967Z,5.72
2018-08-06T14:11:02.427Z,4.03
2018-08-06T14:13:34.108Z,3.33
2018-08-06T14:16:05.471Z,3.25
2018-08-06T14:18:36.449Z,3.58
2018-08-06T14:21:12.072Z,3.40
2018-08-06T14:23:45.110Z,3.80
2018-08-06T14:26:16.714Z,4.65
2018-08-06T14:28:48.089Z,4.85
2018-08-06T14:31:17.898Z,5.32
2018-08-06T14:33:51.037Z,5.78
2018-08-06T14:36:25.311Z,4.45
2018-08-06T14:38:58.089Z,5.28
2018-08-06T14:41:30.888Z,4.07
2018-08-06T14:44:01.905Z,2.83
2018-08-06T14:46:31.668Z,2.75
2018-08-06T14:49:03.382Z,4.68
2018-08-06T14:51:36.288Z,3.35
2018-08-06T14:54:10.019Z,3.45
2018-08-06T14:56:43.222Z,4.35
2018-08-06T14:59:13.096Z,4.07
2018-08-06T15:01:44.507Z,3.95
2018-08-06T15:04:17.390Z,3.33
2018-08-06T15:06:47.325Z,5.68
2018-08-06T15:09:17.349Z,6.15
2018-08-06T15:11:50.156Z,3.85
2018-08-06T15:14:20.960Z,3.55
2018-08-06T15:16:56.247Z,7.50
2018-08-06T15:19:28.995Z,3.00
2018-08-06T15:22:00.398Z,4.18
2018-08-06T15:24:34.113Z,3.33
2018-08-06T15:27:05.804Z,3.72
2018-08-06T15:29:37.170Z,4.07
2018-08-06T15:32:07.125Z,3.10
2018-08-06T15:34:37.077Z,12.90
2018-08-06T15:37:11.238Z,4.62
2018-08-06T15:39:44.180Z,4.57
2018-08-06T15:42:18.454Z,3.90
2018-08-06T15:44:49.931Z,5.12
2018-08-06T15:47:22.844Z,3.60
2018-08-06T15:49:55.937Z,2.97
2018-08-06T15:52:28.846Z,4.60
2018-08-06T15:55:00.277Z,5.18
2018-08-06T15:57:33.356Z,5.20
2018-08-06T16:00:04.698Z,2.80
2018-08-06T16:02:36.655Z,4.15
2018-08-06T16:05:09.706Z,2.87
2018-08-06T16:07:42.848Z,3.42
2018-08-06T16:10:15.101Z,4.57
2018-08-06T16:12:46.541Z,4.80
2018-08-06T16:15:18.223Z,7.18
2018-08-06T16:17:50.797Z,4.18
2018-08-06T16:20:22.178Z,5.50
2018-08-06T16:22:56.444Z,4.07
2018-08-06T16:25:26.768Z,5.97
2018-08-06T16:27:56.785Z,3.47
2018-08-06T16:30:27.625Z,5.00
2018-08-06T16:33:00.524Z,3.40
2018-08-06T16:35:33.806Z,3.22
2018-08-06T16:38:05.181Z,3.50
2018-08-06T16:40:35.149Z,5.35
2018-08-06T16:43:09.588Z,3.15
2018-08-06T16:45:42.347Z,3.42
2018-08-06T16:48:14.234Z,4.18
2018-08-06T16:50:47.060Z,3.37
2018-08-06T16:53:16.998Z,4.15
2018-08-06T16:55:52.573Z,3.17
2018-08-06T16:58:22.492Z,4.10
2018-08-06T17:00:53.370Z,4.87
2018-08-06T17:03:23.803Z,5.07
2018-08-06T17:05:56.558Z,6.50
2018-08-06T17:08:26.454Z,5.65
2018-08-06T17:10:59.282Z,4.22
2018-08-06T17:13:29.240Z,2.80
2018-08-06T17:16:02.072Z,4.53
2018-08-06T17:18:33.498Z,3.65
2018-08-06T17:21:02.796Z,7.85
2018-08-06T17:23:34.216Z,5.00
2018-08-06T17:26:07.233Z,6.82
2018-08-06T17:28:38.509Z,4.87
2018-08-06T17:31:09.927Z,3.80
2018-08-06T17:33:41.455Z,3.75
2018-08-06T17:36:13.012Z,6.10
2018-08-06T17:38:44.318Z,4.85
2018-08-06T17:41:16.144Z,14.68
2018-08-06T17:43:47.966Z,8.65
2018-08-06T17:46:17.871Z,6.22
2018-08-06T17:48:49.310Z,3.80
2018-08-06T17:51:19.152Z,5.70
2018-08-06T17:53:49.136Z,5.30
2018-08-06T17:56:19.418Z,2.92
2018-08-06T17:58:50.742Z,5.07
2018-08-06T18:01:20.649Z,4.00
2018-08-06T18:03:52.206Z,4.55
2018-08-06T18:06:22.075Z,6.10
2018-08-06T18:08:55.224Z,5.07
2018-08-06T18:11:28.475Z,3.58
2018-08-06T18:13:59.936Z,4.95
2018-08-06T18:16:32.906Z,6.15
2018-08-06T18:19:05.192Z,4.93
2018-08-06T18:21:36.646Z,4.93
2018-08-06T18:24:06.788Z,5.82
2018-08-06T18:26:40.587Z,6.95
2018-08-06T18:29:10.421Z,2.30
2018-08-06T18:31:42.541Z,3.28
2018-08-06T18:34:15.427Z,4.55
2018-08-06T18:36:48.338Z,2.92
2018-08-06T18:39:20.800Z,7.93
2018-08-06T18:41:53.942Z,3.97
2018-08-06T18:44:25.289Z,3.90
2018-08-06T18:46:55.188Z,7.55
2018-08-06T18:49:28.062Z,4.65
2018-08-06T18:51:59.540Z,3.58
2018-08-06T18:54:30.862Z,4.40
2018-08-06T18:57:01.153Z,5.75
2018-08-06T18:59:34.058Z,5.25
2018-08-06T19:02:03.972Z,6.78
2018-08-06T19:04:33.915Z,3.85
2018-08-06T19:07:03.924Z,5.35
2018-08-06T19:09:38.318Z,3.33
2018-08-06T19:12:32.943Z,8.05
2018-08-06T19:15:04.321Z,7.53
2018-08-06T19:17:37.793Z,8.65
2018-08-06T19:20:10.894Z,5.03
2018-08-06T19:22:40.994Z,5.90
2018-08-06T19:25:30.033Z,3.47
2018-08-06T19:28:01.516Z,9.15
2018-08-06T19:30:52.238Z,5.87
2018-08-06T19:33:23.956Z,10.50
2018-08-06T19:35:55.924Z,6.43
2018-08-06T19:38:27.521Z,7.32
2018-08-06T19:40:59.052Z,7.47
2018-08-06T19:43:41.240Z,4.82
2018-08-06T19:46:13.440Z,16.02
2018-08-06T19:48:44.803Z,7.32
2018-08-06T19:51:17.703Z,8.02
2018-08-06T19:53:49.326Z,6.10
2018-08-06T19:56:22.524Z,28.05
2018-08-06T19:58:55.574Z,39.30
2018-08-06T20:01:25.499Z,16.65
2018-08-06T20:03:56.058Z,14.65
2018-08-06T20:06:28.275Z,9.13
2018-08-06T20:08:58.235Z,7.93
2018-08-06T20:11:31.600Z,19.98
2018-08-06T20:14:04.531Z,9.88
2018-08-06T20:16:36.030Z,11.52
2018-08-06T20:19:09.617Z,9.85
2018-08-06T20:21:41.123Z,10.57
2018-08-06T20:24:12.612Z,7.15
2018-08-06T20:26:44.371Z,7.82
2018-08-06T20:29:17.381Z,7.75
2018-08-06T20:31:49.120Z,9.70
2018-08-06T20:34:19.045Z,13.80
2018-08-06T20:36:50.629Z,10.43
2018-08-06T20:39:23.623Z,11.25
2018-08-06T20:41:55.192Z,10.95
2018-08-06T20:44:25.208Z,12.02
2018-08-06T20:46:56.752Z,10.13
2018-08-06T20:49:28.326Z,7.87
2018-08-06T20:52:00.042Z,16.23
2018-08-06T20:54:30.126Z,9.90
2018-08-06T20:57:04.524Z,9.90
2018-08-06T20:59:34.449Z,9.00
2018-08-06T21:02:04.419Z,10.35
2018-08-06T21:04:36.045Z,15.45
2018-08-06T21:07:07.662Z,10.05
2018-08-06T21:09:40.626Z,8.48
2018-08-06T21:12:13.432Z,11.10
2018-08-06T21:14:43.344Z,15.88
2018-08-06T21:17:15.294Z,12.77
2018-08-06T21:19:46.749Z,11.93
2018-08-06T21:22:17.456Z,11.50
2018-08-06T21:24:48.954Z,8.98
2018-08-06T21:27:20.621Z,7.75
2018-08-06T21:29:51.980Z,11.45
2018-08-06T21:32:24.993Z,10.32
2018-08-06T21:34:55.070Z,13.45
2018-08-06T21:37:25.088Z,9.45
2018-08-06T21:39:57.153Z,9.13
2018-08-06T21:42:29.957Z,8.85
2018-08-06T21:45:01.523Z,11.70
2018-08-06T21:47:33.800Z,8.93
2018-08-06T21:50:05.901Z,15.25
2018-08-06T21:52:38.268Z,13.13
2018-08-06T21:55:12.367Z,8.27
2018-08-06T21:57:45.326Z,12.82
2018-08-06T22:00:31.274Z,12.18
2018-08-06T22:03:04.608Z,8.50
2018-08-06T22:05:36.205Z,8.73
2018-08-06T22:08:09.233Z,8.13
2018-08-06T22:10:40.790Z,7.50
2018-08-06T22:13:13.864Z,9.82
2018-08-06T22:15:45.279Z,7.87
2018-08-06T22:18:15.056Z,12.07
2018-08-06T22:20:47.782Z,9.95
2018-08-06T22:23:17.707Z,14.43
2018-08-06T22:25:49.102Z,23.42
2018-08-06T22:28:21.936Z,15.60
2018-08-06T22:30:51.866Z,10.02
2018-08-06T22:33:23.891Z,17.52
2018-08-06T22:35:55.363Z,21.50
2018-08-06T22:38:28.266Z,13.62
2018-08-06T22:40:58.845Z,7.97
2018-08-06T22:43:31.767Z,10.15
2018-08-06T22:46:03.268Z,17.15
2018-08-06T22:48:33.418Z,9.48
2018-08-06T22:51:06.273Z,9.25
2018-08-06T22:53:36.878Z,9.15
2018-08-06T22:56:13.726Z,10.07
2018-08-06T22:58:46.984Z,13.38
2018-08-06T23:01:18.895Z,11.00
2018-08-06T23:03:50.366Z,7.82
2018-08-06T23:06:23.311Z,18.17
2018-08-06T23:08:54.973Z,24.63
2018-08-06T23:11:29.288Z,19.85
2018-08-06T23:13:59.817Z,12.23
2018-08-06T23:16:32.691Z,13.75
2018-08-06T23:19:05.575Z,9.88
2018-08-06T23:21:38.589Z,23.52
2018-08-06T23:24:11.620Z,8.85
2018-08-06T23:26:43.093Z,19.27
2018-08-06T23:29:13.068Z,19.95
2018-08-06T23:31:46.342Z,12.98
2018-08-06T23:34:20.818Z,12.25
2018-08-06T23:36:52.316Z,9.23
2018-08-06T23:39:23.827Z,8.68
2018-08-06T23:41:55.321Z,10.00
2018-08-06T23:44:26.716Z,11.15
2018-08-06T23:46:56.695Z,7.97
2018-08-06T23:49:27.135Z,20.40
2018-08-06T23:51:57.462Z,16.73
2018-08-06T23:54:30.308Z,11.20
2018-08-06T23:57:01.771Z,11.25
2018-08-06T23:59:31.675Z,13.32
